sensor_id;sensor_type;location;lat;lon;timestamp;P1;durP1;ratioP1;P2;durP2;ratioP2
62056;SDS011;48016;50.284;18.860;2023-04-15T00:01:21;11.80;;;6.90;;
62056;SDS011;48016;50.284;18.860;2023-04-15T00:03:49;10.40;;;6.70;;
62056;SDS011;48016;50.284;18.860;2023-04-15T00:06:17;10.00;;;6.40;;
62056;SDS011;48016;50.284;18.860;2023-04-15T00:08:45;9.90;;;6.00;;
62056;SDS011;48016;50.284;18.860;2023-04-15T00:11:12;10.30;;;6.50;;
62056;SDS011;48016;50.284;18.860;2023-04-15T00:13:39;12.90;;;6.80;;
62056;SDS011;48016;50.284;18.860;2023-04-15T00:16:06;13.10;;;7.80;;
62056;SDS011;48016;50.284;18.860;2023-04-15T00:18:34;15.00;;;8.10;;
62056;SDS011;48016;50.284;18.860;2023-04-15T00:21:01;11.00;;;7.30;;
62056;SDS011;48016;50.284;18.860;2023-04-15T00:23:28;10.70;;;6.90;;
62056;SDS011;48016;50.284;18.860;2023-04-15T00:25:54;9.30;;;5.80;;
62056;SDS011;48016;50.284;18.860;2023-04-15T00:28:21;7.10;;;5.20;;
62056;SDS011;48016;50.284;18.860;2023-04-15T00:30:48;8.50;;;5.70;;
62056;SDS011;48016;50.284;18.860;2023-04-15T00:35:42;9.20;;;5.70;;
62056;SDS011;48016;50.284;18.860;2023-04-15T00:38:09;7.50;;;5.30;;
62056;SDS011;48016;50.284;18.860;2023-04-15T00:40:36;9.80;;;6.30;;
62056;SDS011;48016;50.284;18.860;2023-04-15T00:43:03;8.70;;;6.40;;
62056;SDS011;48016;50.284;18.860;2023-04-15T00:45:30;9.10;;;6.80;;
62056;SDS011;48016;50.284;18.860;2023-04-15T00:47:58;11.90;;;6.80;;
62056;SDS011;48016;50.284;18.860;2023-04-15T00:50:25;10.70;;;7.00;;
62056;SDS011;48016;50.284;18.860;2023-04-15T00:52:52;13.20;;;8.40;;
62056;SDS011;48016;50.284;18.860;2023-04-15T00:55:18;13.70;;;8.20;;
62056;SDS011;48016;50.284;18.860;2023-04-15T00:57:45;14.80;;;8.40;;
62056;SDS011;48016;50.284;18.860;2023-04-15T01:00:12;12.00;;;7.90;;
62056;SDS011;48016;50.284;18.860;2023-04-15T01:02:39;13.20;;;8.50;;
62056;SDS011;48016;50.284;18.860;2023-04-15T01:05:06;12.10;;;7.90;;
62056;SDS011;48016;50.284;18.860;2023-04-15T01:07:33;13.80;;;8.30;;
62056;SDS011;48016;50.284;18.860;2023-04-15T01:10:00;10.20;;;7.10;;
62056;SDS011;48016;50.284;18.860;2023-04-15T01:12:29;11.30;;;7.50;;
62056;SDS011;48016;50.284;18.860;2023-04-15T01:14:58;13.40;;;8.30;;
62056;SDS011;48016;50.284;18.860;2023-04-15T01:17:25;11.10;;;7.70;;
62056;SDS011;48016;50.284;18.860;2023-04-15T01:19:52;8.80;;;7.00;;
62056;SDS011;48016;50.284;18.860;2023-04-15T01:22:21;12.00;;;7.80;;
62056;SDS011;48016;50.284;18.860;2023-04-15T01:25:10;11.10;;;8.20;;
62056;SDS011;48016;50.284;18.860;2023-04-15T01:27:42;10.60;;;7.50;;
62056;SDS011;48016;50.284;18.860;2023-04-15T01:30:09;12.50;;;7.70;;
62056;SDS011;48016;50.284;18.860;2023-04-15T01:32:36;11.70;;;7.80;;
62056;SDS011;48016;50.284;18.860;2023-04-15T01:35:03;13.00;;;8.40;;
62056;SDS011;48016;50.284;18.860;2023-04-15T01:37:30;12.40;;;8.40;;
62056;SDS011;48016;50.284;18.860;2023-04-15T01:39:57;16.10;;;9.30;;
62056;SDS011;48016;50.284;18.860;2023-04-15T01:42:25;15.40;;;9.00;;
62056;SDS011;48016;50.284;18.860;2023-04-15T01:44:52;15.70;;;9.40;;
62056;SDS011;48016;50.284;18.860;2023-04-15T01:47:19;14.90;;;9.00;;
62056;SDS011;48016;50.284;18.860;2023-04-15T01:49:46;14.20;;;9.10;;
62056;SDS011;48016;50.284;18.860;2023-04-15T01:52:12;14.70;;;9.20;;
62056;SDS011;48016;50.284;18.860;2023-04-15T01:54:39;16.10;;;9.20;;
62056;SDS011;48016;50.284;18.860;2023-04-15T01:57:06;12.30;;;8.60;;
62056;SDS011;48016;50.284;18.860;2023-04-15T01:59:32;13.20;;;9.30;;
62056;SDS011;48016;50.284;18.860;2023-04-15T02:01:59;14.20;;;8.80;;
62056;SDS011;48016;50.284;18.860;2023-04-15T02:04:26;13.30;;;8.90;;
62056;SDS011;48016;50.284;18.860;2023-04-15T02:06:53;12.80;;;9.10;;
62056;SDS011;48016;50.284;18.860;2023-04-15T02:09:19;12.00;;;8.30;;
62056;SDS011;48016;50.284;18.860;2023-04-15T02:11:46;11.00;;;7.60;;
62056;SDS011;48016;50.284;18.860;2023-04-15T02:14:13;12.70;;;8.40;;
62056;SDS011;48016;50.284;18.860;2023-04-15T02:16:39;14.10;;;8.60;;
62056;SDS011;48016;50.284;18.860;2023-04-15T02:19:06;12.50;;;8.20;;
62056;SDS011;48016;50.284;18.860;2023-04-15T02:21:33;10.90;;;7.60;;
62056;SDS011;48016;50.284;18.860;2023-04-15T02:26:27;13.80;;;7.70;;
62056;SDS011;48016;50.284;18.860;2023-04-15T02:28:57;13.00;;;7.20;;
62056;SDS011;48016;50.284;18.860;2023-04-15T02:31:24;12.20;;;7.40;;
62056;SDS011;48016;50.284;18.860;2023-04-15T02:33:51;11.90;;;7.60;;
62056;SDS011;48016;50.284;18.860;2023-04-15T02:36:17;13.00;;;7.70;;
62056;SDS011;48016;50.284;18.860;2023-04-15T02:38:44;12.20;;;6.90;;
62056;SDS011;48016;50.284;18.860;2023-04-15T02:41:11;10.30;;;7.10;;
62056;SDS011;48016;50.284;18.860;2023-04-15T02:43:38;13.40;;;6.80;;
62056;SDS011;48016;50.284;18.860;2023-04-15T02:46:05;11.80;;;6.80;;
62056;SDS011;48016;50.284;18.860;2023-04-15T02:48:32;11.00;;;6.10;;
62056;SDS011;48016;50.284;18.860;2023-04-15T02:53:58;12.80;;;6.60;;
62056;SDS011;48016;50.284;18.860;2023-04-15T02:56:24;10.30;;;5.60;;
62056;SDS011;48016;50.284;18.860;2023-04-15T02:58:51;12.10;;;6.10;;
62056;SDS011;48016;50.284;18.860;2023-04-15T03:04:44;11.50;;;5.80;;
62056;SDS011;48016;50.284;18.860;2023-04-15T03:07:11;10.90;;;5.40;;
62056;SDS011;48016;50.284;18.860;2023-04-15T03:09:37;10.00;;;5.60;;
62056;SDS011;48016;50.284;18.860;2023-04-15T03:12:06;9.30;;;5.10;;
62056;SDS011;48016;50.284;18.860;2023-04-15T03:14:33;9.10;;;6.30;;
62056;SDS011;48016;50.284;18.860;2023-04-15T03:16:59;9.60;;;5.60;;
62056;SDS011;48016;50.284;18.860;2023-04-15T03:19:26;9.90;;;5.20;;
62056;SDS011;48016;50.284;18.860;2023-04-15T03:21:53;7.70;;;5.10;;
62056;SDS011;48016;50.284;18.860;2023-04-15T03:24:20;10.80;;;4.90;;
62056;SDS011;48016;50.284;18.860;2023-04-15T03:26:46;7.80;;;4.70;;
62056;SDS011;48016;50.284;18.860;2023-04-15T03:29:13;7.80;;;4.90;;
62056;SDS011;48016;50.284;18.860;2023-04-15T03:31:40;8.10;;;4.70;;
62056;SDS011;48016;50.284;18.860;2023-04-15T03:34:07;8.20;;;4.70;;
62056;SDS011;48016;50.284;18.860;2023-04-15T03:36:33;7.50;;;3.80;;
62056;SDS011;48016;50.284;18.860;2023-04-15T03:39:00;6.80;;;4.50;;
62056;SDS011;48016;50.284;18.860;2023-04-15T03:41:29;9.70;;;4.10;;
62056;SDS011;48016;50.284;18.860;2023-04-15T03:43:56;7.90;;;4.40;;
62056;SDS011;48016;50.284;18.860;2023-04-15T03:46:22;7.50;;;3.80;;
62056;SDS011;48016;50.284;18.860;2023-04-15T03:48:49;8.90;;;4.00;;
62056;SDS011;48016;50.284;18.860;2023-04-15T03:51:16;7.90;;;4.10;;
62056;SDS011;48016;50.284;18.860;2023-04-15T03:53:42;9.10;;;4.30;;
62056;SDS011;48016;50.284;18.860;2023-04-15T03:56:09;7.90;;;4.80;;
62056;SDS011;48016;50.284;18.860;2023-04-15T03:58:36;10.00;;;5.70;;
62056;SDS011;48016;50.284;18.860;2023-04-15T04:01:02;9.70;;;4.60;;
62056;SDS011;48016;50.284;18.860;2023-04-15T04:03:29;9.50;;;5.50;;
62056;SDS011;48016;50.284;18.860;2023-04-15T04:05:56;8.60;;;5.00;;
62056;SDS011;48016;50.284;18.860;2023-04-15T04:08:22;11.40;;;5.50;;
62056;SDS011;48016;50.284;18.860;2023-04-15T04:10:49;9.80;;;5.00;;
62056;SDS011;48016;50.284;18.860;2023-04-15T04:13:15;9.30;;;5.70;;
62056;SDS011;48016;50.284;18.860;2023-04-15T04:15:42;11.20;;;5.60;;
62056;SDS011;48016;50.284;18.860;2023-04-15T04:18:09;10.50;;;6.60;;
62056;SDS011;48016;50.284;18.860;2023-04-15T04:20:35;13.00;;;6.60;;
62056;SDS011;48016;50.284;18.860;2023-04-15T04:23:02;8.60;;;5.40;;
62056;SDS011;48016;50.284;18.860;2023-04-15T04:25:29;9.80;;;6.20;;
62056;SDS011;48016;50.284;18.860;2023-04-15T04:27:55;12.00;;;6.50;;
62056;SDS011;48016;50.284;18.860;2023-04-15T04:30:22;11.50;;;5.70;;
62056;SDS011;48016;50.284;18.860;2023-04-15T04:32:48;11.10;;;5.90;;
62056;SDS011;48016;50.284;18.860;2023-04-15T04:35:16;12.00;;;6.50;;
62056;SDS011;48016;50.284;18.860;2023-04-15T04:37:42;11.70;;;5.60;;
62056;SDS011;48016;50.284;18.860;2023-04-15T04:40:09;10.30;;;6.30;;
62056;SDS011;48016;50.284;18.860;2023-04-15T04:42:36;10.70;;;6.50;;
62056;SDS011;48016;50.284;18.860;2023-04-15T04:45:03;13.10;;;6.90;;
62056;SDS011;48016;50.284;18.860;2023-04-15T04:47:29;12.20;;;6.50;;
62056;SDS011;48016;50.284;18.860;2023-04-15T04:49:56;11.10;;;6.90;;
62056;SDS011;48016;50.284;18.860;2023-04-15T04:52:23;13.80;;;8.00;;
62056;SDS011;48016;50.284;18.860;2023-04-15T04:54:49;9.80;;;6.90;;
62056;SDS011;48016;50.284;18.860;2023-04-15T04:57:16;12.40;;;6.80;;
62056;SDS011;48016;50.284;18.860;2023-04-15T04:59:43;11.20;;;6.00;;
62056;SDS011;48016;50.284;18.860;2023-04-15T05:02:10;10.90;;;6.50;;
62056;SDS011;48016;50.284;18.860;2023-04-15T05:04:36;9.80;;;6.80;;
62056;SDS011;48016;50.284;18.860;2023-04-15T05:07:03;13.40;;;8.30;;
62056;SDS011;48016;50.284;18.860;2023-04-15T05:09:29;10.80;;;6.40;;
62056;SDS011;48016;50.284;18.860;2023-04-15T05:11:57;11.90;;;7.80;;
62056;SDS011;48016;50.284;18.860;2023-04-15T05:14:24;12.20;;;6.60;;
62056;SDS011;48016;50.284;18.860;2023-04-15T05:16:51;13.60;;;7.50;;
62056;SDS011;48016;50.284;18.860;2023-04-15T05:19:17;13.50;;;7.60;;
62056;SDS011;48016;50.284;18.860;2023-04-15T05:21:44;15.80;;;9.80;;
62056;SDS011;48016;50.284;18.860;2023-04-15T05:24:11;14.80;;;8.50;;
62056;SDS011;48016;50.284;18.860;2023-04-15T05:26:37;12.90;;;7.90;;
62056;SDS011;48016;50.284;18.860;2023-04-15T05:29:04;13.50;;;8.00;;
62056;SDS011;48016;50.284;18.860;2023-04-15T05:31:30;17.70;;;9.40;;
62056;SDS011;48016;50.284;18.860;2023-04-15T05:33:57;14.70;;;9.00;;
62056;SDS011;48016;50.284;18.860;2023-04-15T05:36:24;14.30;;;8.60;;
62056;SDS011;48016;50.284;18.860;2023-04-15T05:38:51;17.50;;;10.10;;
62056;SDS011;48016;50.284;18.860;2023-04-15T05:41:17;16.60;;;9.10;;
62056;SDS011;48016;50.284;18.860;2023-04-15T05:43:44;19.60;;;10.20;;
62056;SDS011;48016;50.284;18.860;2023-04-15T05:46:10;15.20;;;9.30;;
62056;SDS011;48016;50.284;18.860;2023-04-15T05:48:37;15.10;;;9.90;;
62056;SDS011;48016;50.284;18.860;2023-04-15T05:51:04;16.80;;;10.00;;
62056;SDS011;48016;50.284;18.860;2023-04-15T05:53:31;15.60;;;9.00;;
62056;SDS011;48016;50.284;18.860;2023-04-15T05:55:58;16.70;;;9.80;;
62056;SDS011;48016;50.284;18.860;2023-04-15T05:58:24;19.30;;;10.60;;
62056;SDS011;48016;50.284;18.860;2023-04-15T06:00:51;19.50;;;10.20;;
62056;SDS011;48016;50.284;18.860;2023-04-15T06:03:18;18.00;;;10.80;;
62056;SDS011;48016;50.284;18.860;2023-04-15T06:05:44;20.60;;;12.60;;
62056;SDS011;48016;50.284;18.860;2023-04-15T06:08:11;19.60;;;10.90;;
62056;SDS011;48016;50.284;18.860;2023-04-15T06:10:38;22.50;;;12.30;;
62056;SDS011;48016;50.284;18.860;2023-04-15T06:13:05;24.80;;;13.10;;
62056;SDS011;48016;50.284;18.860;2023-04-15T06:15:32;22.10;;;12.50;;
62056;SDS011;48016;50.284;18.860;2023-04-15T06:18:00;24.10;;;13.20;;
62056;SDS011;48016;50.284;18.860;2023-04-15T06:20:27;23.60;;;12.10;;
62056;SDS011;48016;50.284;18.860;2023-04-15T06:22:53;18.30;;;10.60;;
62056;SDS011;48016;50.284;18.860;2023-04-15T06:25:20;18.20;;;10.60;;
62056;SDS011;48016;50.284;18.860;2023-04-15T06:27:47;19.00;;;10.80;;
62056;SDS011;48016;50.284;18.860;2023-04-15T06:30:14;19.00;;;11.50;;
62056;SDS011;48016;50.284;18.860;2023-04-15T06:32:40;16.40;;;9.70;;
62056;SDS011;48016;50.284;18.860;2023-04-15T06:35:07;17.90;;;10.30;;
62056;SDS011;48016;50.284;18.860;2023-04-15T06:37:34;16.20;;;10.10;;
62056;SDS011;48016;50.284;18.860;2023-04-15T06:40:01;15.10;;;9.20;;
62056;SDS011;48016;50.284;18.860;2023-04-15T06:42:30;12.50;;;7.40;;
62056;SDS011;48016;50.284;18.860;2023-04-15T06:44:57;13.90;;;8.50;;
62056;SDS011;48016;50.284;18.860;2023-04-15T06:47:23;15.50;;;8.60;;
62056;SDS011;48016;50.284;18.860;2023-04-15T06:49:50;12.50;;;7.80;;
62056;SDS011;48016;50.284;18.860;2023-04-15T06:52:17;9.20;;;5.40;;
62056;SDS011;48016;50.284;18.860;2023-04-15T06:54:43;7.90;;;4.70;;
62056;SDS011;48016;50.284;18.860;2023-04-15T06:57:10;7.80;;;4.60;;
62056;SDS011;48016;50.284;18.860;2023-04-15T06:59:36;8.00;;;5.90;;
62056;SDS011;48016;50.284;18.860;2023-04-15T07:02:03;8.40;;;5.90;;
62056;SDS011;48016;50.284;18.860;2023-04-15T07:04:30;9.80;;;5.30;;
62056;SDS011;48016;50.284;18.860;2023-04-15T07:06:56;9.00;;;5.70;;
62056;SDS011;48016;50.284;18.860;2023-04-15T07:09:23;10.50;;;6.10;;
62056;SDS011;48016;50.284;18.860;2023-04-15T07:14:17;10.00;;;5.60;;
62056;SDS011;48016;50.284;18.860;2023-04-15T07:16:44;9.60;;;6.10;;
62056;SDS011;48016;50.284;18.860;2023-04-15T07:19:10;9.70;;;6.10;;
62056;SDS011;48016;50.284;18.860;2023-04-15T07:21:37;9.80;;;6.20;;
62056;SDS011;48016;50.284;18.860;2023-04-15T07:24:04;8.60;;;5.60;;
62056;SDS011;48016;50.284;18.860;2023-04-15T07:26:31;8.40;;;5.20;;
62056;SDS011;48016;50.284;18.860;2023-04-15T07:28:57;9.60;;;5.20;;
62056;SDS011;48016;50.284;18.860;2023-04-15T07:31:24;10.80;;;5.80;;
62056;SDS011;48016;50.284;18.860;2023-04-15T07:33:53;9.70;;;5.70;;
62056;SDS011;48016;50.284;18.860;2023-04-15T07:36:19;8.70;;;5.50;;
62056;SDS011;48016;50.284;18.860;2023-04-15T07:38:46;10.30;;;6.30;;
62056;SDS011;48016;50.284;18.860;2023-04-15T07:41:13;8.60;;;5.80;;
62056;SDS011;48016;50.284;18.860;2023-04-15T07:43:40;10.10;;;6.10;;
62056;SDS011;48016;50.284;18.860;2023-04-15T07:48:34;9.20;;;5.60;;
62056;SDS011;48016;50.284;18.860;2023-04-15T07:51:01;8.70;;;6.10;;
62056;SDS011;48016;50.284;18.860;2023-04-15T07:53:28;11.00;;;6.50;;
62056;SDS011;48016;50.284;18.860;2023-04-15T07:55:55;10.80;;;7.00;;
62056;SDS011;48016;50.284;18.860;2023-04-15T07:58:22;11.80;;;6.70;;
62056;SDS011;48016;50.284;18.860;2023-04-15T08:00:49;11.00;;;7.60;;
62056;SDS011;48016;50.284;18.860;2023-04-15T08:03:15;10.80;;;7.20;;
62056;SDS011;48016;50.284;18.860;2023-04-15T08:05:42;11.60;;;7.40;;
62056;SDS011;48016;50.284;18.860;2023-04-15T08:10:36;10.50;;;6.40;;
62056;SDS011;48016;50.284;18.860;2023-04-15T08:13:03;10.20;;;7.00;;
62056;SDS011;48016;50.284;18.860;2023-04-15T08:15:29;8.10;;;5.70;;
62056;SDS011;48016;50.284;18.860;2023-04-15T08:17:58;8.40;;;5.40;;
62056;SDS011;48016;50.284;18.860;2023-04-15T08:20:26;8.10;;;5.30;;
62056;SDS011;48016;50.284;18.860;2023-04-15T08:22:52;8.30;;;5.90;;
62056;SDS011;48016;50.284;18.860;2023-04-15T08:25:19;11.70;;;6.60;;
62056;SDS011;48016;50.284;18.860;2023-04-15T08:27:46;9.80;;;5.80;;
62056;SDS011;48016;50.284;18.860;2023-04-15T08:30:13;7.40;;;4.90;;
62056;SDS011;48016;50.284;18.860;2023-04-15T08:32:46;5.80;;;3.60;;
62056;SDS011;48016;50.284;18.860;2023-04-15T08:35:13;5.10;;;3.40;;
62056;SDS011;48016;50.284;18.860;2023-04-15T08:37:39;6.20;;;3.60;;
62056;SDS011;48016;50.284;18.860;2023-04-15T08:40:06;6.20;;;3.80;;
62056;SDS011;48016;50.284;18.860;2023-04-15T08:42:40;5.60;;;3.80;;
62056;SDS011;48016;50.284;18.860;2023-04-15T08:45:10;6.00;;;3.90;;
62056;SDS011;48016;50.284;18.860;2023-04-15T08:47:37;6.20;;;3.90;;
62056;SDS011;48016;50.284;18.860;2023-04-15T08:50:06;7.00;;;4.50;;
62056;SDS011;48016;50.284;18.860;2023-04-15T08:52:34;7.00;;;4.30;;
62056;SDS011;48016;50.284;18.860;2023-04-15T08:55:02;6.10;;;3.40;;
62056;SDS011;48016;50.284;18.860;2023-04-15T08:57:30;3.90;;;2.00;;
62056;SDS011;48016;50.284;18.860;2023-04-15T08:59:57;3.20;;;1.70;;
62056;SDS011;48016;50.284;18.860;2023-04-15T09:02:24;3.00;;;1.70;;
62056;SDS011;48016;50.284;18.860;2023-04-15T09:04:52;5.60;;;3.10;;
62056;SDS011;48016;50.284;18.860;2023-04-15T09:07:19;4.10;;;2.40;;
62056;SDS011;48016;50.284;18.860;2023-04-15T09:09:46;5.80;;;2.60;;
62056;SDS011;48016;50.284;18.860;2023-04-15T09:12:13;5.10;;;2.10;;
62056;SDS011;48016;50.284;18.860;2023-04-15T09:14:44;3.60;;;1.90;;
62056;SDS011;48016;50.284;18.860;2023-04-15T09:17:11;4.20;;;1.80;;
62056;SDS011;48016;50.284;18.860;2023-04-15T09:19:38;3.60;;;2.20;;
62056;SDS011;48016;50.284;18.860;2023-04-15T09:22:04;3.30;;;2.00;;
62056;SDS011;48016;50.284;18.860;2023-04-15T09:24:35;3.60;;;2.10;;
62056;SDS011;48016;50.284;18.860;2023-04-15T09:27:03;3.20;;;1.80;;
62056;SDS011;48016;50.284;18.860;2023-04-15T09:29:31;3.10;;;1.90;;
62056;SDS011;48016;50.284;18.860;2023-04-15T09:32:11;2.40;;;1.60;;
62056;SDS011;48016;50.284;18.860;2023-04-15T09:34:39;3.40;;;1.80;;
62056;SDS011;48016;50.284;18.860;2023-04-15T09:37:06;3.00;;;1.70;;
62056;SDS011;48016;50.284;18.860;2023-04-15T09:39:48;3.60;;;2.10;;
62056;SDS011;48016;50.284;18.860;2023-04-15T09:42:17;2.70;;;1.70;;
62056;SDS011;48016;50.284;18.860;2023-04-15T09:44:52;3.20;;;1.80;;
62056;SDS011;48016;50.284;18.860;2023-04-15T09:49:56;3.10;;;2.00;;
62056;SDS011;48016;50.284;18.860;2023-04-15T09:52:23;2.50;;;1.70;;
62056;SDS011;48016;50.284;18.860;2023-04-15T09:54:51;3.00;;;1.80;;
62056;SDS011;48016;50.284;18.860;2023-04-15T09:57:20;4.00;;;1.90;;
62056;SDS011;48016;50.284;18.860;2023-04-15T09:59:47;3.10;;;1.70;;
62056;SDS011;48016;50.284;18.860;2023-04-15T10:02:14;4.00;;;2.00;;
62056;SDS011;48016;50.284;18.860;2023-04-15T10:04:41;2.60;;;1.70;;
62056;SDS011;48016;50.284;18.860;2023-04-15T10:07:09;3.80;;;1.90;;
62056;SDS011;48016;50.284;18.860;2023-04-15T10:09:39;2.80;;;1.90;;
62056;SDS011;48016;50.284;18.860;2023-04-15T10:12:07;3.70;;;1.90;;
62056;SDS011;48016;50.284;18.860;2023-04-15T10:17:04;4.70;;;3.10;;
62056;SDS011;48016;50.284;18.860;2023-04-15T10:19:32;3.00;;;2.20;;
62056;SDS011;48016;50.284;18.860;2023-04-15T10:22:02;3.00;;;2.00;;
62056;SDS011;48016;50.284;18.860;2023-04-15T10:24:32;3.60;;;2.30;;
62056;SDS011;48016;50.284;18.860;2023-04-15T10:26:59;4.00;;;2.00;;
62056;SDS011;48016;50.284;18.860;2023-04-15T10:29:29;3.20;;;1.90;;
62056;SDS011;48016;50.284;18.860;2023-04-15T10:31:57;3.20;;;1.80;;
62056;SDS011;48016;50.284;18.860;2023-04-15T10:34:24;3.20;;;1.70;;
62056;SDS011;48016;50.284;18.860;2023-04-15T10:36:57;2.40;;;1.90;;
62056;SDS011;48016;50.284;18.860;2023-04-15T10:42:06;3.00;;;2.00;;
62056;SDS011;48016;50.284;18.860;2023-04-15T10:44:32;3.20;;;2.00;;
62056;SDS011;48016;50.284;18.860;2023-04-15T10:47:03;3.40;;;2.30;;
62056;SDS011;48016;50.284;18.860;2023-04-15T10:49:35;3.10;;;2.10;;
62056;SDS011;48016;50.284;18.860;2023-04-15T10:52:08;2.80;;;1.80;;
62056;SDS011;48016;50.284;18.860;2023-04-15T10:54:35;2.40;;;1.70;;
62056;SDS011;48016;50.284;18.860;2023-04-15T10:59:31;3.30;;;2.00;;
62056;SDS011;48016;50.284;18.860;2023-04-15T11:01:59;2.90;;;2.30;;
62056;SDS011;48016;50.284;18.860;2023-04-15T11:07:40;2.00;;;1.70;;
62056;SDS011;48016;50.284;18.860;2023-04-15T11:12:39;3.30;;;1.90;;
62056;SDS011;48016;50.284;18.860;2023-04-15T11:18:16;3.10;;;2.20;;
62056;SDS011;48016;50.284;18.860;2023-04-15T11:23:41;3.10;;;1.90;;
62056;SDS011;48016;50.284;18.860;2023-04-15T11:26:13;2.90;;;2.00;;
62056;SDS011;48016;50.284;18.860;2023-04-15T11:28:44;4.00;;;2.50;;
62056;SDS011;48016;50.284;18.860;2023-04-15T11:31:15;3.70;;;2.20;;
62056;SDS011;48016;50.284;18.860;2023-04-15T11:33:47;3.60;;;2.20;;
62056;SDS011;48016;50.284;18.860;2023-04-15T11:36:20;4.10;;;2.10;;
62056;SDS011;48016;50.284;18.860;2023-04-15T11:38:49;6.80;;;2.60;;
62056;SDS011;48016;50.284;18.860;2023-04-15T11:41:19;4.80;;;3.10;;
62056;SDS011;48016;50.284;18.860;2023-04-15T11:43:46;4.80;;;2.60;;
62056;SDS011;48016;50.284;18.860;2023-04-15T11:46:13;4.30;;;2.70;;
62056;SDS011;48016;50.284;18.860;2023-04-15T11:48:43;3.20;;;2.30;;
62056;SDS011;48016;50.284;18.860;2023-04-15T11:51:11;3.90;;;2.60;;
62056;SDS011;48016;50.284;18.860;2023-04-15T11:56:19;3.40;;;2.30;;
62056;SDS011;48016;50.284;18.860;2023-04-15T11:58:51;3.00;;;2.10;;
62056;SDS011;48016;50.284;18.860;2023-04-15T12:01:19;3.80;;;2.60;;
62056;SDS011;48016;50.284;18.860;2023-04-15T12:03:46;4.80;;;2.90;;
62056;SDS011;48016;50.284;18.860;2023-04-15T12:06:15;3.20;;;2.30;;
62056;SDS011;48016;50.284;18.860;2023-04-15T12:11:16;2.90;;;2.10;;
62056;SDS011;48016;50.284;18.860;2023-04-15T12:13:43;3.10;;;2.40;;
62056;SDS011;48016;50.284;18.860;2023-04-15T12:16:18;4.50;;;2.50;;
62056;SDS011;48016;50.284;18.860;2023-04-15T12:18:51;5.30;;;3.20;;
62056;SDS011;48016;50.284;18.860;2023-04-15T12:23:52;4.50;;;2.70;;
62056;SDS011;48016;50.284;18.860;2023-04-15T12:26:26;5.00;;;3.30;;
62056;SDS011;48016;50.284;18.860;2023-04-15T12:29:02;5.80;;;3.10;;
62056;SDS011;48016;50.284;18.860;2023-04-15T12:31:36;5.30;;;3.60;;
62056;SDS011;48016;50.284;18.860;2023-04-15T12:34:12;4.80;;;3.20;;
62056;SDS011;48016;50.284;18.860;2023-04-15T12:36:39;5.00;;;3.20;;
62056;SDS011;48016;50.284;18.860;2023-04-15T12:39:06;3.90;;;2.80;;
62056;SDS011;48016;50.284;18.860;2023-04-15T12:41:33;5.30;;;3.30;;
62056;SDS011;48016;50.284;18.860;2023-04-15T12:44:00;5.60;;;3.70;;
62056;SDS011;48016;50.284;18.860;2023-04-15T12:46:26;5.60;;;3.10;;
62056;SDS011;48016;50.284;18.860;2023-04-15T12:48:53;5.90;;;3.30;;
62056;SDS011;48016;50.284;18.860;2023-04-15T12:51:20;5.00;;;3.30;;
62056;SDS011;48016;50.284;18.860;2023-04-15T12:53:47;4.60;;;3.50;;
62056;SDS011;48016;50.284;18.860;2023-04-15T12:56:15;5.70;;;3.70;;
62056;SDS011;48016;50.284;18.860;2023-04-15T13:01:08;6.40;;;3.30;;
62056;SDS011;48016;50.284;18.860;2023-04-15T13:06:02;5.50;;;3.60;;
62056;SDS011;48016;50.284;18.860;2023-04-15T13:08:30;4.30;;;2.80;;
62056;SDS011;48016;50.284;18.860;2023-04-15T13:10:57;5.20;;;3.40;;
62056;SDS011;48016;50.284;18.860;2023-04-15T13:13:24;6.20;;;3.30;;
62056;SDS011;48016;50.284;18.860;2023-04-15T13:15:50;4.80;;;3.30;;
62056;SDS011;48016;50.284;18.860;2023-04-15T13:18:17;4.60;;;3.00;;
62056;SDS011;48016;50.284;18.860;2023-04-15T13:20:44;5.70;;;3.60;;
62056;SDS011;48016;50.284;18.860;2023-04-15T13:23:10;6.00;;;4.10;;
62056;SDS011;48016;50.284;18.860;2023-04-15T13:25:37;7.00;;;4.50;;
62056;SDS011;48016;50.284;18.860;2023-04-15T13:28:04;6.90;;;4.90;;
62056;SDS011;48016;50.284;18.860;2023-04-15T13:30:30;9.40;;;5.40;;
62056;SDS011;48016;50.284;18.860;2023-04-15T13:32:57;8.40;;;4.80;;
62056;SDS011;48016;50.284;18.860;2023-04-15T13:35:24;8.20;;;5.00;;
62056;SDS011;48016;50.284;18.860;2023-04-15T13:37:52;8.60;;;5.00;;
62056;SDS011;48016;50.284;18.860;2023-04-15T13:40:19;7.50;;;4.80;;
62056;SDS011;48016;50.284;18.860;2023-04-15T13:42:46;8.40;;;4.70;;
62056;SDS011;48016;50.284;18.860;2023-04-15T13:45:12;8.60;;;4.50;;
62056;SDS011;48016;50.284;18.860;2023-04-15T13:47:39;8.00;;;5.00;;
62056;SDS011;48016;50.284;18.860;2023-04-15T13:50:06;7.50;;;4.70;;
62056;SDS011;48016;50.284;18.860;2023-04-15T13:52:33;6.90;;;4.80;;
62056;SDS011;48016;50.284;18.860;2023-04-15T13:54:59;8.60;;;4.80;;
62056;SDS011;48016;50.284;18.860;2023-04-15T13:57:26;6.60;;;4.40;;
62056;SDS011;48016;50.284;18.860;2023-04-15T13:59:52;9.10;;;5.50;;
62056;SDS011;48016;50.284;18.860;2023-04-15T14:02:19;8.00;;;5.40;;
62056;SDS011;48016;50.284;18.860;2023-04-15T14:07:13;9.20;;;6.10;;
62056;SDS011;48016;50.284;18.860;2023-04-15T14:09:40;11.10;;;7.00;;
62056;SDS011;48016;50.284;18.860;2023-04-15T14:12:06;9.40;;;6.20;;
62056;SDS011;48016;50.284;18.860;2023-04-15T14:14:33;9.50;;;5.70;;
62056;SDS011;48016;50.284;18.860;2023-04-15T14:16:59;8.70;;;5.90;;
62056;SDS011;48016;50.284;18.860;2023-04-15T14:19:26;10.00;;;5.40;;
62056;SDS011;48016;50.284;18.860;2023-04-15T14:21:53;10.40;;;5.90;;
62056;SDS011;48016;50.284;18.860;2023-04-15T14:24:19;11.50;;;6.30;;
62056;SDS011;48016;50.284;18.860;2023-04-15T14:26:46;8.80;;;5.80;;
62056;SDS011;48016;50.284;18.860;2023-04-15T14:29:12;9.00;;;5.70;;
62056;SDS011;48016;50.284;18.860;2023-04-15T14:31:39;8.00;;;5.10;;
62056;SDS011;48016;50.284;18.860;2023-04-15T14:34:06;7.50;;;4.90;;
62056;SDS011;48016;50.284;18.860;2023-04-15T14:36:32;10.70;;;5.30;;
62056;SDS011;48016;50.284;18.860;2023-04-15T14:38:59;7.90;;;5.20;;
62056;SDS011;48016;50.284;18.860;2023-04-15T14:41:25;10.60;;;5.90;;
62056;SDS011;48016;50.284;18.860;2023-04-15T14:43:52;7.90;;;4.80;;
62056;SDS011;48016;50.284;18.860;2023-04-15T14:46:19;8.10;;;4.90;;
62056;SDS011;48016;50.284;18.860;2023-04-15T14:48:46;8.30;;;4.70;;
62056;SDS011;48016;50.284;18.860;2023-04-15T14:51:12;8.80;;;5.60;;
62056;SDS011;48016;50.284;18.860;2023-04-15T14:53:39;9.00;;;5.40;;
62056;SDS011;48016;50.284;18.860;2023-04-15T14:56:06;9.90;;;5.50;;
62056;SDS011;48016;50.284;18.860;2023-04-15T14:58:33;8.50;;;6.10;;
62056;SDS011;48016;50.284;18.860;2023-04-15T15:00:59;11.20;;;5.60;;
62056;SDS011;48016;50.284;18.860;2023-04-15T15:03:28;8.80;;;5.20;;
62056;SDS011;48016;50.284;18.860;2023-04-15T15:05:54;9.40;;;5.00;;
62056;SDS011;48016;50.284;18.860;2023-04-15T15:08:23;10.50;;;5.10;;
62056;SDS011;48016;50.284;18.860;2023-04-15T15:10:49;10.20;;;5.10;;
62056;SDS011;48016;50.284;18.860;2023-04-15T15:13:16;10.70;;;5.40;;
62056;SDS011;48016;50.284;18.860;2023-04-15T15:15:44;8.50;;;5.00;;
62056;SDS011;48016;50.284;18.860;2023-04-15T15:18:11;10.10;;;4.90;;
62056;SDS011;48016;50.284;18.860;2023-04-15T15:20:37;9.70;;;5.60;;
62056;SDS011;48016;50.284;18.860;2023-04-15T15:23:04;9.70;;;6.10;;
62056;SDS011;48016;50.284;18.860;2023-04-15T15:25:30;11.80;;;7.00;;